X  Fermer Données météorologiques d'aviation de Metar     YPAD Adelaide International Airport
Température
15°C Température
11°C Point de rosée
77% Humidité



Vitesse
32 KM/H
20 MPH
9 M/S
17 KTS



170°
Sud
Conditions actuelles

Plutôt nuageux Plutôt nuageux
Pression 1006.92 (hPa) - 29.73 (inHg)
Visibilité 6.2 (mile) - 10 (km)
Aéroport
Code de l'aéroport YPAD

Emplacement: Adelaide International Airport
Distance: 20 (km)

Metar:
YPAD 231008Z 17017KT 9999 BKN015 15/11 Q1007 TEMPO 1000/1300 5000 DZ BKN008

Temps: 23-10-2020 8:38 pm ACDT